createdAt,value
2018-11-12T00:02:03.946Z,6.13
2018-11-12T00:04:32.073Z,3.67
2018-11-12T00:07:00.903Z,4.50
2018-11-12T00:09:29.733Z,2.83
2018-11-12T00:11:57.805Z,2.80
2018-11-12T00:14:26.641Z,4.12
2018-11-12T00:16:54.835Z,4.77
2018-11-12T00:19:22.986Z,6.90
2018-11-12T00:21:51.263Z,3.60
2018-11-12T00:24:21.673Z,3.13
2018-11-12T00:26:50.145Z,5.30
2018-11-12T00:29:18.669Z,3.33
2018-11-12T00:31:47.674Z,5.00
2018-11-12T00:34:16.677Z,2.90
2018-11-12T00:36:45.035Z,4.90
2018-11-12T00:39:15.260Z,3.20
2018-11-12T00:41:45.047Z,3.03
2018-11-12T00:44:14.225Z,4.37
2018-11-12T00:46:42.566Z,3.23
2018-11-12T00:49:10.869Z,4.20
2018-11-12T00:51:39.906Z,4.73
2018-11-12T00:54:08.081Z,5.03
2018-11-12T00:56:36.578Z,4.15
2018-11-12T00:59:05.023Z,3.67
2018-11-12T01:01:33.087Z,6.80
2018-11-12T01:04:01.360Z,4.77
2018-11-12T01:06:30.730Z,5.20
2018-11-12T01:08:59.423Z,5.10
2018-11-12T01:11:28.688Z,4.53
2018-11-12T01:13:56.909Z,3.93
2018-11-12T01:16:25.198Z,7.47
2018-11-12T01:18:53.310Z,3.87
2018-11-12T01:21:21.470Z,5.60
2018-11-12T01:23:50.487Z,4.90
2018-11-12T01:26:18.614Z,5.63
2018-11-12T01:28:47.310Z,3.77
2018-11-12T01:31:16.143Z,6.00
2018-11-12T01:33:45.051Z,5.10
2018-11-12T01:36:14.002Z,4.75
2018-11-12T01:38:42.698Z,6.03
2018-11-12T01:41:11.155Z,7.67
2018-11-12T01:43:39.386Z,5.27
2018-11-12T01:46:08.938Z,6.97
2018-11-12T01:48:37.420Z,8.63
2018-11-12T01:51:06.769Z,6.33
2018-11-12T01:53:35.310Z,10.27
2018-11-12T01:56:05.681Z,5.53
2018-11-12T01:58:34.830Z,7.73
2018-11-12T02:01:03.331Z,7.87
2018-11-12T02:03:32.122Z,5.92
2018-11-12T02:06:00.750Z,8.10
2018-11-12T02:08:29.331Z,5.47
2018-11-12T02:10:59.005Z,7.63
2018-11-12T02:13:28.305Z,5.77
2018-11-12T02:15:56.415Z,8.30
2018-11-12T02:18:24.618Z,7.37
2018-11-12T02:20:52.898Z,7.50
2018-11-12T02:23:21.857Z,7.07
2018-11-12T02:25:50.509Z,8.07
2018-11-12T02:28:19.470Z,9.00
2018-11-12T02:30:48.974Z,8.37
2018-11-12T02:33:20.097Z,7.33
2018-11-12T02:35:48.562Z,10.80
2018-11-12T02:38:16.681Z,6.27
2018-11-12T02:40:45.275Z,7.67
2018-11-12T02:43:13.573Z,7.23
2018-11-12T02:45:41.702Z,9.90
2018-11-12T02:48:10.773Z,6.87
2018-11-12T02:50:39.506Z,6.10
2018-11-12T02:53:08.685Z,6.13
2018-11-12T02:55:36.858Z,5.00
2018-11-12T02:58:05.393Z,4.97
2018-11-12T03:00:34.486Z,5.95
2018-11-12T03:03:02.871Z,5.23
2018-11-12T03:05:31.095Z,6.33
2018-11-12T03:07:59.779Z,7.30
2018-11-12T03:10:28.018Z,5.07
2018-11-12T03:12:56.281Z,5.93
2018-11-12T03:15:24.446Z,5.30
2018-11-12T03:17:52.948Z,4.47
2018-11-12T03:20:23.063Z,6.15
2018-11-12T03:22:52.562Z,3.97
2018-11-12T03:25:22.418Z,11.08
2018-11-12T03:27:51.063Z,5.05
2018-11-12T03:30:21.823Z,7.00
2018-11-12T03:32:51.578Z,5.30
2018-11-12T03:35:19.845Z,5.93
2018-11-12T03:37:49.155Z,4.87
2018-11-12T03:40:19.622Z,7.13
2018-11-12T03:42:48.210Z,6.27
2018-11-12T03:45:18.118Z,5.43
2018-11-12T03:47:46.297Z,6.50
2018-11-12T03:50:16.510Z,5.63
2018-11-12T03:52:45.166Z,7.30
2018-11-12T03:55:14.356Z,5.30
2018-11-12T03:57:42.730Z,6.43
2018-11-12T04:00:15.841Z,7.10
2018-11-12T04:02:45.158Z,8.07
2018-11-12T04:05:13.270Z,8.97
2018-11-12T04:07:41.999Z,6.17
2018-11-12T04:10:15.254Z,5.73
2018-11-12T04:12:44.189Z,6.47
2018-11-12T04:15:14.166Z,7.30
2018-11-12T04:17:43.270Z,7.50
2018-11-12T04:20:13.105Z,4.97
2018-11-12T04:22:41.867Z,8.33
2018-11-12T04:25:11.944Z,5.70
2018-11-12T04:27:40.176Z,4.93
2018-11-12T04:30:11.742Z,7.13
2018-11-12T04:32:40.766Z,6.40
2018-11-12T04:35:10.137Z,5.43
2018-11-12T04:37:38.901Z,6.10
2018-11-12T04:40:12.373Z,6.60
2018-11-12T04:42:41.902Z,5.30
2018-11-12T04:45:13.062Z,5.17
2018-11-12T04:47:42.426Z,5.23
2018-11-12T04:50:13.189Z,6.70
2018-11-12T04:52:42.695Z,6.70
2018-11-12T04:55:13.242Z,5.17
2018-11-12T04:57:42.340Z,6.57
2018-11-12T05:00:14.628Z,6.73
2018-11-12T05:02:42.951Z,7.93
2018-11-12T05:05:13.317Z,6.40
2018-11-12T05:07:42.433Z,5.93
2018-11-12T05:10:12.637Z,5.13
2018-11-12T05:12:41.393Z,6.77
2018-11-12T05:15:11.578Z,4.30
2018-11-12T05:17:41.020Z,6.73
2018-11-12T05:20:11.894Z,7.57
2018-11-12T05:22:40.978Z,6.93
2018-11-12T05:25:10.237Z,8.23
2018-11-12T05:27:38.331Z,7.90
2018-11-12T05:30:14.265Z,6.50
2018-11-12T05:32:42.788Z,9.60
2018-11-12T05:35:13.317Z,8.40
2018-11-12T05:37:42.868Z,8.10
2018-11-12T05:40:13.560Z,8.13
2018-11-12T05:42:42.187Z,7.43
2018-11-12T05:45:10.969Z,9.80
2018-11-12T05:47:39.357Z,12.03
2018-11-12T05:50:10.749Z,8.90
2018-11-12T05:52:42.098Z,10.90
2018-11-12T05:55:11.454Z,12.70
2018-11-12T05:57:41.294Z,7.70
2018-11-12T06:00:10.958Z,10.20
2018-11-12T06:02:40.264Z,13.00
2018-11-12T06:05:09.421Z,11.30
2018-11-12T06:07:37.897Z,8.30
2018-11-12T06:10:13.131Z,7.43
2018-11-12T06:12:41.981Z,10.23
2018-11-12T06:15:10.938Z,8.60
2018-11-12T06:18:43.637Z,10.77
2018-11-12T06:21:12.240Z,9.43
2018-11-12T06:23:41.026Z,10.17
2018-11-12T06:26:09.282Z,9.73
2018-11-12T06:28:37.725Z,8.63
2018-11-12T06:31:06.411Z,10.17
2018-11-12T06:33:35.094Z,13.18
2018-11-12T06:36:04.170Z,14.37
2018-11-12T06:38:33.762Z,12.67
2018-11-12T06:41:02.002Z,12.53
2018-11-12T06:43:30.682Z,12.18
2018-11-12T06:45:59.241Z,10.23
2018-11-12T06:48:27.490Z,10.25
2018-11-12T06:50:56.826Z,12.50
2018-11-12T06:53:25.296Z,12.10
2018-11-12T06:55:54.929Z,10.20
2018-11-12T06:58:24.154Z,10.28
2018-11-12T07:00:52.494Z,8.40
2018-11-12T07:03:21.897Z,9.27
2018-11-12T07:05:50.122Z,8.80
2018-11-12T07:08:18.742Z,10.73
2018-11-12T07:10:46.994Z,8.60
2018-11-12T07:13:15.200Z,7.83
2018-11-12T07:15:44.077Z,8.27
2018-11-12T07:18:12.670Z,9.37
2018-11-12T07:20:41.431Z,8.90
2018-11-12T07:23:09.546Z,7.83
2018-11-12T07:25:38.833Z,7.90
2018-11-12T07:28:06.962Z,7.00
2018-11-12T07:30:35.120Z,8.30
2018-11-12T07:33:03.885Z,6.43
2018-11-12T07:35:32.074Z,6.10
2018-11-12T07:38:00.970Z,9.23
2018-11-12T07:40:29.791Z,8.27
2018-11-12T07:42:57.925Z,5.77
2018-11-12T07:45:28.785Z,5.67
2018-11-12T07:47:57.982Z,6.53
2018-11-12T07:50:27.986Z,5.10
2018-11-12T07:52:56.478Z,5.73
2018-11-12T07:55:26.782Z,5.65
2018-11-12T07:57:55.981Z,5.50
2018-11-12T08:00:25.500Z,4.73
2018-11-12T08:02:59.362Z,4.67
2018-11-12T08:05:28.582Z,4.60
2018-11-12T08:07:56.969Z,4.57
2018-11-12T08:10:25.047Z,4.77
2018-11-12T08:12:53.614Z,4.07
2018-11-12T08:18:53.805Z,5.27
2018-11-12T08:21:22.949Z,3.70
2018-11-12T08:23:51.860Z,5.13
2018-11-12T08:26:20.547Z,3.60
2018-11-12T08:28:49.042Z,4.53
2018-11-12T08:31:18.342Z,3.67
2018-11-12T08:33:47.294Z,3.50
2018-11-12T08:36:16.069Z,2.80
2018-11-12T08:38:45.186Z,3.73
2018-11-12T08:41:15.239Z,3.57
2018-11-12T08:43:43.843Z,3.40
2018-11-12T08:46:12.649Z,3.83
2018-11-12T08:48:40.748Z,2.67
2018-11-12T08:51:09.354Z,3.23
2018-11-12T08:53:38.298Z,3.57
2018-11-12T08:56:07.546Z,4.03
2018-11-12T08:58:36.964Z,3.40
2018-11-12T09:01:05.790Z,3.07
2018-11-12T09:03:34.528Z,4.40
2018-11-12T09:06:02.963Z,2.63
2018-11-12T09:08:32.105Z,3.40
2018-11-12T09:11:00.275Z,2.93
2018-11-12T09:13:28.374Z,2.50
2018-11-12T09:15:56.934Z,3.60
2018-11-12T09:18:25.102Z,3.53
2018-11-12T09:20:53.852Z,3.53
2018-11-12T09:23:22.410Z,3.67
2018-11-12T09:25:51.104Z,4.33
2018-11-12T09:28:19.269Z,4.75
2018-11-12T09:30:48.677Z,3.10
2018-11-12T09:33:15.882Z,3.30
2018-11-12T09:35:44.592Z,3.47
2018-11-12T09:38:13.054Z,3.40
2018-11-12T09:40:41.278Z,3.73
2018-11-12T09:43:10.107Z,3.63
2018-11-12T09:45:39.526Z,3.30
2018-11-12T09:48:08.827Z,4.17
2018-11-12T09:50:37.797Z,3.97
2018-11-12T09:53:06.201Z,5.37
2018-11-12T09:55:34.436Z,6.00
2018-11-12T09:58:05.125Z,4.77
2018-11-12T10:00:34.437Z,4.87
2018-11-12T10:03:04.077Z,3.17
2018-11-12T10:05:33.732Z,3.55
2018-11-12T10:08:07.698Z,3.20
2018-11-12T10:10:38.743Z,2.85
2018-11-12T10:13:10.180Z,3.33
2018-11-12T10:15:38.137Z,3.63
2018-11-12T10:18:07.355Z,4.50
2018-11-12T10:20:34.254Z,3.43
2018-11-12T10:23:02.966Z,3.60
2018-11-12T10:25:32.333Z,6.22
2018-11-12T10:28:01.358Z,4.03
2018-11-12T10:30:29.626Z,4.43
2018-11-12T10:32:58.163Z,4.30
2018-11-12T10:35:27.285Z,5.60
2018-11-12T10:37:56.554Z,4.30
2018-11-12T10:40:26.182Z,5.60
2018-11-12T10:42:55.099Z,4.00
2018-11-12T10:45:23.530Z,3.70
2018-11-12T10:47:52.781Z,4.27
2018-11-12T10:50:21.225Z,4.78
2018-11-12T10:52:50.386Z,4.27
2018-11-12T10:55:20.691Z,3.93
2018-11-12T10:57:49.549Z,4.30
2018-11-12T11:00:26.807Z,5.07
2018-11-12T11:03:01.918Z,4.30
2018-11-12T11:05:30.538Z,3.77
2018-11-12T11:08:00.410Z,4.47
2018-11-12T11:10:29.577Z,4.35
2018-11-12T11:12:59.117Z,4.13
2018-11-12T11:15:27.721Z,4.92
2018-11-12T11:17:56.269Z,4.83
2018-11-12T11:20:25.403Z,4.55
2018-11-12T11:22:53.898Z,4.50
2018-11-12T11:25:22.933Z,4.77
2018-11-12T11:27:51.137Z,5.77
2018-11-12T11:30:19.520Z,4.00
2018-11-12T11:32:48.777Z,3.77
2018-11-12T11:35:17.756Z,4.13
2018-11-12T11:37:46.851Z,4.77
2018-11-12T11:40:20.355Z,4.22
2018-11-12T11:42:48.955Z,4.23
2018-11-12T11:45:18.038Z,4.10
2018-11-12T11:47:47.992Z,4.20
2018-11-12T11:50:18.316Z,4.95
2018-11-12T11:52:47.504Z,7.53
2018-11-12T11:55:18.293Z,5.37
2018-11-12T11:57:47.434Z,5.80
2018-11-12T12:00:19.082Z,3.80
2018-11-12T12:02:48.820Z,5.92
2018-11-12T12:05:17.701Z,4.30
2018-11-12T12:07:45.859Z,4.17
2018-11-12T12:10:15.434Z,4.50
2018-11-12T12:12:45.258Z,5.00
2018-11-12T12:15:15.109Z,5.40
2018-11-12T12:17:43.330Z,4.85
2018-11-12T12:20:13.539Z,4.63
2018-11-12T12:22:42.026Z,4.50
2018-11-12T12:25:14.650Z,4.87
2018-11-12T12:27:44.545Z,5.60
2018-11-12T12:30:15.621Z,4.63
2018-11-12T12:32:46.647Z,5.10
2018-11-12T12:35:16.756Z,5.47
2018-11-12T12:37:46.290Z,6.43
2018-11-12T12:40:18.294Z,5.40
2018-11-12T12:42:47.597Z,5.43
2018-11-12T12:45:18.112Z,6.17
2018-11-12T12:47:46.757Z,6.33
2018-11-12T12:50:16.894Z,5.85
2018-11-12T12:52:45.469Z,6.80
2018-11-12T12:55:15.209Z,6.63
2018-11-12T12:57:44.244Z,7.17
2018-11-12T13:00:28.474Z,6.30
2018-11-12T13:02:57.398Z,6.73
2018-11-12T13:05:27.414Z,7.20
2018-11-12T13:07:55.912Z,8.27
2018-11-12T13:10:24.574Z,7.53
2018-11-12T13:12:52.701Z,6.47
2018-11-12T13:15:22.152Z,6.45
2018-11-12T13:17:50.970Z,7.70
2018-11-12T13:20:20.542Z,6.50
2018-11-12T13:22:48.942Z,8.27
2018-11-12T13:25:18.013Z,6.43
2018-11-12T13:27:46.758Z,7.90
2018-11-12T13:30:17.241Z,7.37
2018-11-12T13:32:46.838Z,6.77
2018-11-12T13:35:16.949Z,7.93
2018-11-12T13:37:45.889Z,6.83
2018-11-12T13:40:16.120Z,7.77
2018-11-12T13:42:46.082Z,7.13
2018-11-12T13:45:14.709Z,6.90
2018-11-12T13:47:43.878Z,7.97
2018-11-12T13:50:14.625Z,7.37
2018-11-12T13:52:43.590Z,7.50
2018-11-12T13:55:12.814Z,6.70
2018-11-12T13:57:41.177Z,7.20
2018-11-12T14:00:14.088Z,7.87
2018-11-12T14:02:44.409Z,7.00
2018-11-12T14:05:14.405Z,7.27
2018-11-12T14:07:44.538Z,8.03
2018-11-12T14:10:14.949Z,8.23
2018-11-12T14:12:43.838Z,8.27
2018-11-12T14:15:14.085Z,6.80
2018-11-12T14:17:42.690Z,6.87
2018-11-12T14:20:11.780Z,8.43
2018-11-12T14:22:41.035Z,6.23
2018-11-12T14:25:12.290Z,7.47
2018-11-12T14:27:40.986Z,6.63
2018-11-12T14:30:10.726Z,6.30
2018-11-12T14:32:40.098Z,7.73
2018-11-12T14:35:09.827Z,7.33
2018-11-12T14:37:37.946Z,7.67
2018-11-12T14:40:08.666Z,10.60
2018-11-12T14:42:37.306Z,8.17
2018-11-12T14:45:07.368Z,11.77
2018-11-12T14:47:35.670Z,8.37
2018-11-12T14:50:04.274Z,10.27
2018-11-12T14:52:32.405Z,8.07
2018-11-12T14:55:01.500Z,11.87
2018-11-12T14:57:31.223Z,9.03
2018-11-12T15:00:00.382Z,9.83
2018-11-12T15:02:29.685Z,9.87
2018-11-12T15:07:41.155Z,11.27
2018-11-12T15:10:11.661Z,12.53
2018-11-12T15:12:40.957Z,10.30
2018-11-12T15:15:11.077Z,12.70
2018-11-12T15:17:39.953Z,15.10
2018-11-12T15:20:09.922Z,11.20
2018-11-12T15:22:38.672Z,12.23
2018-11-12T15:25:12.514Z,11.63
2018-11-12T15:27:43.493Z,15.23
2018-11-12T15:30:14.425Z,15.93
2018-11-12T15:32:44.126Z,11.80
2018-11-12T15:35:12.874Z,16.00
2018-11-12T15:37:41.690Z,16.37
2018-11-12T15:40:11.550Z,13.90
2018-11-12T15:42:40.789Z,14.83
2018-11-12T15:45:12.053Z,14.00
2018-11-12T15:47:41.258Z,18.37
2018-11-12T15:50:12.938Z,21.43
2018-11-12T15:52:41.801Z,16.97
2018-11-12T15:55:10.747Z,21.43
2018-11-12T15:57:39.977Z,21.50
2018-11-12T16:00:11.286Z,17.23
2018-11-12T16:02:40.106Z,15.80
2018-11-12T16:05:08.839Z,22.37
2018-11-12T16:07:37.134Z,18.07
2018-11-12T16:10:09.334Z,21.27
2018-11-12T16:12:38.444Z,21.60
2018-11-12T16:15:07.519Z,19.07
2018-11-12T16:17:36.230Z,24.73
2018-11-12T16:20:06.979Z,21.33
2018-11-12T16:22:35.206Z,23.40
2018-11-12T16:25:03.787Z,22.83
2018-11-12T16:27:33.283Z,22.47
2018-11-12T16:30:01.775Z,28.80
2018-11-12T16:32:32.263Z,19.27
2018-11-12T16:35:01.135Z,20.73
2018-11-12T16:37:31.165Z,20.40
2018-11-12T16:40:00.050Z,21.53
2018-11-12T16:42:30.273Z,22.13
2018-11-12T16:44:58.398Z,24.47
2018-11-12T16:47:28.341Z,24.15
2018-11-12T16:49:57.118Z,22.40
2018-11-12T16:52:26.017Z,18.57
2018-11-12T16:54:54.145Z,17.50
2018-11-12T16:57:22.918Z,21.60
2018-11-12T16:59:52.278Z,18.00
2018-11-12T17:02:20.433Z,21.75
2018-11-12T17:04:48.657Z,19.20
2018-11-12T17:07:17.087Z,19.83
2018-11-12T17:09:45.691Z,24.50
2018-11-12T17:12:13.888Z,24.00
2018-11-12T17:14:43.038Z,22.70
2018-11-12T17:17:11.606Z,25.20
2018-11-12T17:19:40.101Z,23.07
2018-11-12T17:22:08.941Z,32.40
2018-11-12T17:24:37.045Z,36.57
2018-11-12T17:27:05.697Z,30.67
2018-11-12T17:29:34.241Z,38.77
2018-11-12T17:32:02.741Z,30.17
2018-11-12T17:38:03.026Z,44.67
2018-11-12T17:40:32.762Z,50.30
2018-11-12T17:43:01.522Z,43.93
2018-11-12T17:45:30.558Z,45.30
2018-11-12T17:47:59.709Z,53.27
2018-11-12T17:50:28.532Z,54.70
2018-11-12T17:52:57.582Z,66.70
2018-11-12T17:55:25.766Z,54.33
2018-11-12T17:57:53.998Z,58.40
2018-11-12T18:00:24.281Z,66.47
2018-11-12T18:02:53.480Z,60.10
2018-11-12T18:05:22.434Z,52.77
2018-11-12T18:07:51.805Z,53.83
2018-11-12T18:10:21.334Z,50.37
2018-11-12T18:12:50.796Z,49.87
2018-11-12T18:15:21.836Z,50.77
2018-11-12T18:17:51.491Z,45.13
2018-11-12T18:20:21.723Z,44.47
2018-11-12T18:22:51.121Z,43.73
2018-11-12T18:25:19.610Z,47.15
2018-11-12T18:27:47.843Z,42.90
2018-11-12T18:30:21.026Z,37.67
2018-11-12T18:32:50.459Z,41.13
2018-11-12T18:35:19.563Z,36.63
2018-11-12T18:37:48.293Z,38.87
2018-11-12T18:40:18.049Z,43.20
2018-11-12T18:42:47.129Z,41.80
2018-11-12T18:45:18.792Z,50.40
2018-11-12T18:47:47.725Z,40.13
2018-11-12T18:50:18.525Z,44.10
2018-11-12T18:52:47.319Z,43.07
2018-11-12T18:55:15.497Z,34.50
2018-11-12T18:57:44.471Z,43.67
2018-11-12T19:00:14.006Z,43.87
2018-11-12T19:02:42.856Z,51.20
2018-11-12T19:05:13.259Z,45.10
2018-11-12T19:07:43.441Z,45.13
2018-11-12T19:10:21.041Z,44.70
2018-11-12T19:12:49.529Z,44.17
2018-11-12T19:15:18.937Z,42.30
2018-11-12T19:17:49.369Z,48.50
2018-11-12T19:20:17.713Z,49.53
2018-11-12T19:22:45.882Z,47.27
2018-11-12T19:25:14.225Z,49.20
2018-11-12T19:27:43.555Z,42.50
2018-11-12T19:30:16.962Z,48.80
2018-11-12T19:32:45.141Z,46.73
2018-11-12T19:35:14.625Z,52.40
2018-11-12T19:37:43.323Z,50.30
2018-11-12T19:40:13.530Z,54.83
2018-11-12T19:42:43.756Z,54.27
2018-11-12T19:45:12.901Z,52.20
2018-11-12T19:47:41.515Z,60.20
2018-11-12T19:50:13.329Z,55.57
2018-11-12T19:52:43.081Z,49.13
2018-11-12T19:55:12.074Z,47.47
2018-11-12T19:57:40.718Z,51.00
2018-11-12T20:00:12.146Z,54.07
2018-11-12T20:02:41.734Z,59.60
2018-11-12T20:05:10.201Z,46.73
2018-11-12T20:07:39.537Z,45.43
2018-11-12T20:10:10.598Z,47.17
2018-11-12T20:12:39.753Z,44.57
2018-11-12T20:15:09.318Z,52.10
2018-11-12T20:17:38.675Z,47.27
2018-11-12T20:20:10.361Z,42.30
2018-11-12T20:22:40.022Z,47.40
2018-11-12T20:25:09.523Z,42.13
2018-11-12T20:27:37.897Z,45.93
2018-11-12T20:30:09.455Z,45.35
2018-11-12T20:32:38.879Z,50.93
2018-11-12T20:35:07.107Z,45.73
2018-11-12T20:37:36.102Z,40.43
2018-11-12T20:40:05.145Z,45.63
2018-11-12T20:42:34.617Z,55.53
2018-11-12T20:45:03.188Z,48.80
2018-11-12T20:47:31.615Z,44.17
2018-11-12T20:50:00.441Z,50.97
2018-11-12T20:52:28.762Z,66.07
2018-11-12T20:54:56.920Z,62.83
2018-11-12T20:57:25.057Z,53.33
2018-11-12T20:59:55.366Z,51.60
2018-11-12T21:02:24.449Z,65.37
2018-11-12T21:04:52.877Z,61.13
2018-11-12T21:07:22.433Z,65.73
2018-11-12T21:09:50.732Z,63.87
2018-11-12T21:12:19.722Z,58.57
2018-11-12T21:14:47.897Z,70.07
2018-11-12T21:17:16.326Z,67.80
2018-11-12T21:19:44.439Z,59.83
2018-11-12T21:22:14.366Z,54.43
2018-11-12T21:24:42.769Z,60.87
2018-11-12T21:27:11.242Z,61.53
2018-11-12T21:29:41.154Z,72.70
2018-11-12T21:32:09.865Z,58.57
2018-11-12T21:34:39.186Z,54.30
2018-11-12T21:37:07.960Z,57.53
2018-11-12T21:39:36.542Z,58.10
2018-11-12T21:42:05.409Z,54.17
2018-11-12T21:44:34.497Z,66.00
2018-11-12T21:47:03.153Z,63.47
2018-11-12T21:49:31.426Z,66.97
2018-11-12T21:52:00.169Z,61.23
2018-11-12T21:54:28.462Z,69.17
2018-11-12T21:56:57.183Z,63.67
2018-11-12T21:59:26.906Z,68.73
2018-11-12T22:01:54.942Z,64.03
2018-11-12T22:04:23.862Z,72.82
2018-11-12T22:06:52.993Z,58.63
2018-11-12T22:09:21.286Z,68.83
2018-11-12T22:11:50.137Z,64.77
2018-11-12T22:14:18.430Z,61.10
2018-11-12T22:16:47.643Z,66.70
2018-11-12T22:19:16.984Z,59.87
2018-11-12T22:21:45.099Z,68.37
2018-11-12T22:24:14.309Z,65.10
2018-11-12T22:26:42.475Z,54.30
2018-11-12T22:29:11.963Z,56.60
2018-11-12T22:31:42.313Z,53.03
2018-11-12T22:34:10.461Z,59.40
2018-11-12T22:36:38.597Z,52.93
2018-11-12T22:39:08.563Z,55.93
2018-11-12T22:41:38.434Z,47.57
2018-11-12T22:44:07.167Z,45.37
2018-11-12T22:47:39.242Z,49.55
2018-11-12T22:50:08.877Z,50.53
2018-11-12T22:52:38.054Z,46.43
2018-11-12T22:55:07.950Z,51.83
2018-11-12T22:57:36.725Z,45.03
2018-11-12T23:00:16.030Z,49.63
2018-11-12T23:02:45.154Z,46.33
2018-11-12T23:05:13.869Z,38.20
2018-11-12T23:07:43.156Z,38.73
2018-11-12T23:10:11.641Z,45.33
2018-11-12T23:12:41.221Z,47.37
2018-11-12T23:15:10.986Z,37.47
2018-11-12T23:17:39.905Z,35.90
2018-11-12T23:20:18.350Z,38.27
2018-11-12T23:22:48.058Z,33.63
2018-11-12T23:25:19.157Z,34.40
2018-11-12T23:27:47.831Z,37.47
2018-11-12T23:30:19.110Z,36.30
2018-11-12T23:32:47.891Z,35.43
2018-11-12T23:35:18.637Z,42.30
2018-11-12T23:37:48.245Z,35.50
2018-11-12T23:40:17.615Z,38.53
2018-11-12T23:42:47.016Z,40.40
2018-11-12T23:45:16.164Z,40.35
2018-11-12T23:47:45.266Z,38.03
2018-11-12T23:50:16.134Z,43.43
2018-11-12T23:52:45.785Z,39.77
2018-11-12T23:55:15.742Z,37.67
2018-11-12T23:57:44.564Z,38.53
